sensor_id;sensor_type;location;lat;lon;timestamp;temperature;humidity
53645;DHT22;39547;45.554;12.068;2023-04-29T00:00:49;14.00;73.90
53645;DHT22;39547;45.554;12.068;2023-04-29T00:06:51;14.00;73.90
53645;DHT22;39547;45.554;12.068;2023-04-29T00:12:52;14.00;73.90
53645;DHT22;39547;45.554;12.068;2023-04-29T00:18:54;13.90;74.40
53645;DHT22;39547;45.554;12.068;2023-04-29T00:24:56;13.90;74.40
53645;DHT22;39547;45.554;12.068;2023-04-29T00:30:58;13.90;74.30
53645;DHT22;39547;45.554;12.068;2023-04-29T00:36:59;13.90;74.30
53645;DHT22;39547;45.554;12.068;2023-04-29T00:43:01;13.90;74.50
53645;DHT22;39547;45.554;12.068;2023-04-29T00:49:03;14.00;74.80
53645;DHT22;39547;45.554;12.068;2023-04-29T00:55:06;13.90;74.70
53645;DHT22;39547;45.554;12.068;2023-04-29T01:01:09;13.90;74.70
53645;DHT22;39547;45.554;12.068;2023-04-29T01:07:15;13.90;74.70
53645;DHT22;39547;45.554;12.068;2023-04-29T01:13:42;13.90;75.00
53645;DHT22;39547;45.554;12.068;2023-04-29T01:19:51;13.90;74.90
53645;DHT22;39547;45.554;12.068;2023-04-29T01:25:56;13.90;75.80
53645;DHT22;39547;45.554;12.068;2023-04-29T01:32:24;13.90;75.40
53645;DHT22;39547;45.554;12.068;2023-04-29T01:38:46;13.90;75.40
53645;DHT22;39547;45.554;12.068;2023-04-29T01:44:54;13.90;75.00
53645;DHT22;39547;45.554;12.068;2023-04-29T01:50:58;14.00;74.90
53645;DHT22;39547;45.554;12.068;2023-04-29T01:57:00;14.00;74.90
53645;DHT22;39547;45.554;12.068;2023-04-29T02:03:09;13.90;74.80
53645;DHT22;39547;45.554;12.068;2023-04-29T02:09:14;14.00;74.60
53645;DHT22;39547;45.554;12.068;2023-04-29T02:15:26;14.00;74.50
53645;DHT22;39547;45.554;12.068;2023-04-29T02:21:29;14.00;74.30
53645;DHT22;39547;45.554;12.068;2023-04-29T02:27:35;14.00;74.20
53645;DHT22;39547;45.554;12.068;2023-04-29T02:33:36;14.00;74.20
53645;DHT22;39547;45.554;12.068;2023-04-29T02:39:38;13.90;74.30
53645;DHT22;39547;45.554;12.068;2023-04-29T02:45:39;13.80;74.10
53645;DHT22;39547;45.554;12.068;2023-04-29T02:51:41;13.80;74.60
53645;DHT22;39547;45.554;12.068;2023-04-29T02:57:43;13.80;74.80
53645;DHT22;39547;45.554;12.068;2023-04-29T03:03:45;13.70;75.00
53645;DHT22;39547;45.554;12.068;2023-04-29T03:09:46;13.70;74.60
53645;DHT22;39547;45.554;12.068;2023-04-29T03:15:48;13.70;74.60
53645;DHT22;39547;45.554;12.068;2023-04-29T03:21:50;13.70;75.20
53645;DHT22;39547;45.554;12.068;2023-04-29T03:27:51;13.60;74.70
53645;DHT22;39547;45.554;12.068;2023-04-29T03:33:53;13.60;74.70
53645;DHT22;39547;45.554;12.068;2023-04-29T03:39:56;13.60;74.30
53645;DHT22;39547;45.554;12.068;2023-04-29T03:45:57;13.60;74.00
53645;DHT22;39547;45.554;12.068;2023-04-29T03:52:00;13.60;73.90
53645;DHT22;39547;45.554;12.068;2023-04-29T03:58:02;13.60;73.80
53645;DHT22;39547;45.554;12.068;2023-04-29T04:04:04;13.60;73.90
53645;DHT22;39547;45.554;12.068;2023-04-29T04:10:07;13.60;73.70
53645;DHT22;39547;45.554;12.068;2023-04-29T04:16:09;13.60;73.60
53645;DHT22;39547;45.554;12.068;2023-04-29T04:22:14;13.50;73.80
53645;DHT22;39547;45.554;12.068;2023-04-29T04:28:26;13.60;73.80
53645;DHT22;39547;45.554;12.068;2023-04-29T04:34:38;13.60;73.80
53645;DHT22;39547;45.554;12.068;2023-04-29T04:40:40;13.50;73.80
53645;DHT22;39547;45.554;12.068;2023-04-29T04:47:08;13.50;73.90
53645;DHT22;39547;45.554;12.068;2023-04-29T04:53:25;13.40;74.40
53645;DHT22;39547;45.554;12.068;2023-04-29T04:59:40;13.20;74.80
53645;DHT22;39547;45.554;12.068;2023-04-29T05:05:43;13.20;75.10
53645;DHT22;39547;45.554;12.068;2023-04-29T05:11:44;13.20;75.30
53645;DHT22;39547;45.554;12.068;2023-04-29T05:17:49;13.20;75.40
53645;DHT22;39547;45.554;12.068;2023-04-29T05:23:51;13.30;75.60
53645;DHT22;39547;45.554;12.068;2023-04-29T05:29:52;13.30;75.50
53645;DHT22;39547;45.554;12.068;2023-04-29T05:35:54;13.30;75.40
53645;DHT22;39547;45.554;12.068;2023-04-29T05:41:55;13.30;75.40
53645;DHT22;39547;45.554;12.068;2023-04-29T05:48:09;13.50;75.70
53645;DHT22;39547;45.554;12.068;2023-04-29T05:54:10;13.60;75.60
53645;DHT22;39547;45.554;12.068;2023-04-29T06:00:12;13.70;75.50
53645;DHT22;39547;45.554;12.068;2023-04-29T06:06:17;13.90;75.40
53645;DHT22;39547;45.554;12.068;2023-04-29T06:12:37;13.90;75.00
53645;DHT22;39547;45.554;12.068;2023-04-29T06:18:39;14.00;74.80
53645;DHT22;39547;45.554;12.068;2023-04-29T06:24:41;14.10;74.60
53645;DHT22;39547;45.554;12.068;2023-04-29T06:30:44;14.10;74.80
53645;DHT22;39547;45.554;12.068;2023-04-29T06:36:46;14.20;75.00
53645;DHT22;39547;45.554;12.068;2023-04-29T06:43:14;14.20;74.90
53645;DHT22;39547;45.554;12.068;2023-04-29T06:49:15;14.30;74.90
53645;DHT22;39547;45.554;12.068;2023-04-29T06:55:17;14.30;75.00
53645;DHT22;39547;45.554;12.068;2023-04-29T07:01:18;14.50;74.80
53645;DHT22;39547;45.554;12.068;2023-04-29T07:07:20;14.70;74.70
53645;DHT22;39547;45.554;12.068;2023-04-29T07:13:21;14.90;74.40
53645;DHT22;39547;45.554;12.068;2023-04-29T07:19:24;15.10;74.20
53645;DHT22;39547;45.554;12.068;2023-04-29T07:25:26;15.30;73.90
53645;DHT22;39547;45.554;12.068;2023-04-29T07:31:30;15.50;73.90
53645;DHT22;39547;45.554;12.068;2023-04-29T07:37:31;15.70;73.80
53645;DHT22;39547;45.554;12.068;2023-04-29T07:43:33;16.10;73.90
53645;DHT22;39547;45.554;12.068;2023-04-29T07:49:34;16.20;73.60
53645;DHT22;39547;45.554;12.068;2023-04-29T07:55:39;16.20;73.50
53645;DHT22;39547;45.554;12.068;2023-04-29T08:01:41;16.40;73.60
53645;DHT22;39547;45.554;12.068;2023-04-29T08:07:42;16.60;73.40
53645;DHT22;39547;45.554;12.068;2023-04-29T08:13:45;16.80;73.20
53645;DHT22;39547;45.554;12.068;2023-04-29T08:19:47;16.90;72.70
53645;DHT22;39547;45.554;12.068;2023-04-29T08:25:48;17.10;72.50
53645;DHT22;39547;45.554;12.068;2023-04-29T08:31:52;17.30;72.50
53645;DHT22;39547;45.554;12.068;2023-04-29T08:37:53;17.50;72.30
53645;DHT22;39547;45.554;12.068;2023-04-29T08:43:55;17.60;72.20
53645;DHT22;39547;45.554;12.068;2023-04-29T08:50:01;17.70;71.30
53645;DHT22;39547;45.554;12.068;2023-04-29T08:56:08;17.70;71.40
53645;DHT22;39547;45.554;12.068;2023-04-29T09:02:15;17.90;70.70
53645;DHT22;39547;45.554;12.068;2023-04-29T09:08:23;18.20;69.70
53645;DHT22;39547;45.554;12.068;2023-04-29T09:14:24;18.50;69.40
53645;DHT22;39547;45.554;12.068;2023-04-29T09:20:27;18.70;65.80
53645;DHT22;39547;45.554;12.068;2023-04-29T09:26:40;18.70;66.90
53645;DHT22;39547;45.554;12.068;2023-04-29T09:32:42;18.70;66.00
53645;DHT22;39547;45.554;12.068;2023-04-29T09:38:54;18.70;65.50
53645;DHT22;39547;45.554;12.068;2023-04-29T09:44:55;18.60;65.50
53645;DHT22;39547;45.554;12.068;2023-04-29T09:51:01;18.70;64.80
53645;DHT22;39547;45.554;12.068;2023-04-29T09:57:03;18.70;64.40
53645;DHT22;39547;45.554;12.068;2023-04-29T10:03:08;18.80;64.10
53645;DHT22;39547;45.554;12.068;2023-04-29T10:09:12;19.00;64.10
53645;DHT22;39547;45.554;12.068;2023-04-29T10:15:27;18.90;60.70
53645;DHT22;39547;45.554;12.068;2023-04-29T10:21:30;19.00;61.90
53645;DHT22;39547;45.554;12.068;2023-04-29T10:27:33;19.00;62.40
53645;DHT22;39547;45.554;12.068;2023-04-29T10:33:35;19.10;61.80
53645;DHT22;39547;45.554;12.068;2023-04-29T10:40:15;19.50;60.70
53645;DHT22;39547;45.554;12.068;2023-04-29T10:46:23;19.70;57.70
53645;DHT22;39547;45.554;12.068;2023-04-29T10:52:26;19.70;59.40
53645;DHT22;39547;45.554;12.068;2023-04-29T11:05:09;20.20;59.20
53645;DHT22;39547;45.554;12.068;2023-04-29T11:11:12;20.30;58.90
53645;DHT22;39547;45.554;12.068;2023-04-29T11:17:16;20.30;58.70
53645;DHT22;39547;45.554;12.068;2023-04-29T11:23:18;20.60;58.90
53645;DHT22;39547;45.554;12.068;2023-04-29T11:29:20;21.10;57.80
53645;DHT22;39547;45.554;12.068;2023-04-29T11:35:22;21.30;56.90
53645;DHT22;39547;45.554;12.068;2023-04-29T11:41:24;21.40;56.60
53645;DHT22;39547;45.554;12.068;2023-04-29T11:47:27;21.70;56.40
53645;DHT22;39547;45.554;12.068;2023-04-29T11:53:29;21.80;55.40
53645;DHT22;39547;45.554;12.068;2023-04-29T11:59:31;21.80;54.00
53645;DHT22;39547;45.554;12.068;2023-04-29T12:05:33;22.30;55.50
53645;DHT22;39547;45.554;12.068;2023-04-29T12:11:35;22.90;55.10
53645;DHT22;39547;45.554;12.068;2023-04-29T12:17:38;23.80;52.90
53645;DHT22;39547;45.554;12.068;2023-04-29T12:23:40;23.70;51.70
53645;DHT22;39547;45.554;12.068;2023-04-29T12:29:41;23.60;53.10
53645;DHT22;39547;45.554;12.068;2023-04-29T12:35:43;24.70;51.60
53645;DHT22;39547;45.554;12.068;2023-04-29T12:41:44;25.20;50.20
53645;DHT22;39547;45.554;12.068;2023-04-29T12:47:46;26.00;48.80
53645;DHT22;39547;45.554;12.068;2023-04-29T12:53:47;27.00;46.80
53645;DHT22;39547;45.554;12.068;2023-04-29T12:59:49;26.20;45.20
53645;DHT22;39547;45.554;12.068;2023-04-29T13:05:50;24.70;47.20
53645;DHT22;39547;45.554;12.068;2023-04-29T13:11:54;24.10;48.30
53645;DHT22;39547;45.554;12.068;2023-04-29T13:17:56;23.70;49.10
53645;DHT22;39547;45.554;12.068;2023-04-29T13:23:58;23.60;49.30
53645;DHT22;39547;45.554;12.068;2023-04-29T13:30:00;24.20;48.60
53645;DHT22;39547;45.554;12.068;2023-04-29T13:36:01;24.00;48.90
53645;DHT22;39547;45.554;12.068;2023-04-29T13:42:03;23.40;49.70
53645;DHT22;39547;45.554;12.068;2023-04-29T13:48:04;22.80;50.00
53645;DHT22;39547;45.554;12.068;2023-04-29T13:54:06;22.50;51.00
53645;DHT22;39547;45.554;12.068;2023-04-29T14:00:07;22.10;52.00
53645;DHT22;39547;45.554;12.068;2023-04-29T14:06:12;22.50;52.80
53645;DHT22;39547;45.554;12.068;2023-04-29T14:12:14;23.20;52.00
53645;DHT22;39547;45.554;12.068;2023-04-29T14:18:15;22.70;52.40
53645;DHT22;39547;45.554;12.068;2023-04-29T14:24:17;22.20;54.10
53645;DHT22;39547;45.554;12.068;2023-04-29T14:30:18;21.80;54.80
53645;DHT22;39547;45.554;12.068;2023-04-29T14:36:20;21.60;55.10
53645;DHT22;39547;45.554;12.068;2023-04-29T14:42:21;21.50;55.60
53645;DHT22;39547;45.554;12.068;2023-04-29T14:48:23;21.60;55.80
53645;DHT22;39547;45.554;12.068;2023-04-29T14:54:24;21.80;55.90
53645;DHT22;39547;45.554;12.068;2023-04-29T15:00:27;21.80;56.20
53645;DHT22;39547;45.554;12.068;2023-04-29T15:06:28;22.00;55.80
53645;DHT22;39547;45.554;12.068;2023-04-29T15:12:31;22.20;55.40
53645;DHT22;39547;45.554;12.068;2023-04-29T15:18:32;22.00;55.70
53645;DHT22;39547;45.554;12.068;2023-04-29T15:24:34;21.80;56.20
53645;DHT22;39547;45.554;12.068;2023-04-29T15:30:36;21.50;57.00
53645;DHT22;39547;45.554;12.068;2023-04-29T15:36:37;21.30;57.70
53645;DHT22;39547;45.554;12.068;2023-04-29T15:42:39;21.10;58.20
53645;DHT22;39547;45.554;12.068;2023-04-29T15:48:40;20.90;58.30
53645;DHT22;39547;45.554;12.068;2023-04-29T15:54:42;20.80;58.50
53645;DHT22;39547;45.554;12.068;2023-04-29T16:00:44;20.60;59.00
53645;DHT22;39547;45.554;12.068;2023-04-29T16:06:45;20.60;59.20
53645;DHT22;39547;45.554;12.068;2023-04-29T16:12:48;20.50;59.60
53645;DHT22;39547;45.554;12.068;2023-04-29T16:18:52;20.30;59.90
53645;DHT22;39547;45.554;12.068;2023-04-29T16:24:54;20.20;60.20
53645;DHT22;39547;45.554;12.068;2023-04-29T16:30:55;20.10;60.40
53645;DHT22;39547;45.554;12.068;2023-04-29T16:36:57;20.00;60.80
53645;DHT22;39547;45.554;12.068;2023-04-29T16:42:58;19.80;61.10
53645;DHT22;39547;45.554;12.068;2023-04-29T16:49:00;19.80;61.20
53645;DHT22;39547;45.554;12.068;2023-04-29T16:55:01;19.70;61.50
53645;DHT22;39547;45.554;12.068;2023-04-29T17:01:03;19.60;61.80
53645;DHT22;39547;45.554;12.068;2023-04-29T17:07:05;19.40;61.70
53645;DHT22;39547;45.554;12.068;2023-04-29T17:13:06;19.30;61.60
53645;DHT22;39547;45.554;12.068;2023-04-29T17:19:08;19.20;61.70
53645;DHT22;39547;45.554;12.068;2023-04-29T17:25:09;19.20;61.60
53645;DHT22;39547;45.554;12.068;2023-04-29T17:31:11;19.10;61.60
53645;DHT22;39547;45.554;12.068;2023-04-29T17:37:15;19.00;61.70
53645;DHT22;39547;45.554;12.068;2023-04-29T17:43:17;18.90;62.10
53645;DHT22;39547;45.554;12.068;2023-04-29T17:49:19;18.80;62.50
53645;DHT22;39547;45.554;12.068;2023-04-29T17:55:20;18.60;63.00
53645;DHT22;39547;45.554;12.068;2023-04-29T18:01:22;18.50;63.60
53645;DHT22;39547;45.554;12.068;2023-04-29T18:07:23;18.20;64.20
53645;DHT22;39547;45.554;12.068;2023-04-29T18:13:25;18.10;64.40
53645;DHT22;39547;45.554;12.068;2023-04-29T18:19:27;18.00;64.60
53645;DHT22;39547;45.554;12.068;2023-04-29T18:25:28;17.80;64.70
53645;DHT22;39547;45.554;12.068;2023-04-29T18:31:29;17.70;65.60
53645;DHT22;39547;45.554;12.068;2023-04-29T18:37:31;17.70;65.80
53645;DHT22;39547;45.554;12.068;2023-04-29T18:43:33;17.60;66.30
53645;DHT22;39547;45.554;12.068;2023-04-29T18:49:34;17.50;66.90
53645;DHT22;39547;45.554;12.068;2023-04-29T18:55:36;17.30;67.40
53645;DHT22;39547;45.554;12.068;2023-04-29T19:01:38;17.20;67.60
53645;DHT22;39547;45.554;12.068;2023-04-29T19:07:39;17.20;68.00
53645;DHT22;39547;45.554;12.068;2023-04-29T19:13:41;17.10;68.30
53645;DHT22;39547;45.554;12.068;2023-04-29T19:19:42;17.00;68.90
53645;DHT22;39547;45.554;12.068;2023-04-29T19:25:44;16.90;69.20
53645;DHT22;39547;45.554;12.068;2023-04-29T19:31:45;16.90;69.80
53645;DHT22;39547;45.554;12.068;2023-04-29T19:37:47;16.80;70.10
53645;DHT22;39547;45.554;12.068;2023-04-29T19:43:48;16.70;70.90
53645;DHT22;39547;45.554;12.068;2023-04-29T19:49:50;16.60;71.10
53645;DHT22;39547;45.554;12.068;2023-04-29T19:55:52;16.50;71.40
53645;DHT22;39547;45.554;12.068;2023-04-29T20:01:57;16.40;71.40
53645;DHT22;39547;45.554;12.068;2023-04-29T20:07:58;16.30;71.50
53645;DHT22;39547;45.554;12.068;2023-04-29T20:14:00;16.30;72.00
53645;DHT22;39547;45.554;12.068;2023-04-29T20:20:01;16.20;71.90
53645;DHT22;39547;45.554;12.068;2023-04-29T20:26:02;16.20;72.30
53645;DHT22;39547;45.554;12.068;2023-04-29T20:32:04;16.10;73.40
53645;DHT22;39547;45.554;12.068;2023-04-29T20:38:06;16.00;73.70
53645;DHT22;39547;45.554;12.068;2023-04-29T20:44:07;16.00;73.60
53645;DHT22;39547;45.554;12.068;2023-04-29T20:50:09;16.00;73.60
53645;DHT22;39547;45.554;12.068;2023-04-29T20:56:11;16.00;74.00
53645;DHT22;39547;45.554;12.068;2023-04-29T21:02:12;15.90;74.40
53645;DHT22;39547;45.554;12.068;2023-04-29T21:08:13;15.90;74.20
53645;DHT22;39547;45.554;12.068;2023-04-29T21:14:15;15.90;74.20
53645;DHT22;39547;45.554;12.068;2023-04-29T21:20:16;15.80;74.50
53645;DHT22;39547;45.554;12.068;2023-04-29T21:26:18;15.70;74.90
53645;DHT22;39547;45.554;12.068;2023-04-29T21:32:20;15.70;74.70
53645;DHT22;39547;45.554;12.068;2023-04-29T21:38:21;15.60;74.70
53645;DHT22;39547;45.554;12.068;2023-04-29T21:44:23;15.50;74.90
53645;DHT22;39547;45.554;12.068;2023-04-29T21:50:25;15.50;75.10
53645;DHT22;39547;45.554;12.068;2023-04-29T21:56:26;15.40;75.20
53645;DHT22;39547;45.554;12.068;2023-04-29T22:02:28;15.40;75.10
53645;DHT22;39547;45.554;12.068;2023-04-29T22:08:38;15.40;75.40
53645;DHT22;39547;45.554;12.068;2023-04-29T22:14:39;15.40;75.80
53645;DHT22;39547;45.554;12.068;2023-04-29T22:20:40;15.40;75.60
53645;DHT22;39547;45.554;12.068;2023-04-29T22:26:42;15.40;76.10
53645;DHT22;39547;45.554;12.068;2023-04-29T22:32:43;15.40;75.90
53645;DHT22;39547;45.554;12.068;2023-04-29T22:38:45;15.40;75.80
53645;DHT22;39547;45.554;12.068;2023-04-29T22:44:46;15.40;76.10
53645;DHT22;39547;45.554;12.068;2023-04-29T22:50:52;15.40;76.10
53645;DHT22;39547;45.554;12.068;2023-04-29T22:56:53;15.40;76.10
53645;DHT22;39547;45.554;12.068;2023-04-29T23:02:55;15.40;76.10
53645;DHT22;39547;45.554;12.068;2023-04-29T23:08:56;15.30;76.20
53645;DHT22;39547;45.554;12.068;2023-04-29T23:14:57;15.30;76.80
53645;DHT22;39547;45.554;12.068;2023-04-29T23:20:59;15.20;76.80
53645;DHT22;39547;45.554;12.068;2023-04-29T23:27:00;15.20;77.20
53645;DHT22;39547;45.554;12.068;2023-04-29T23:33:03;15.20;76.80
53645;DHT22;39547;45.554;12.068;2023-04-29T23:39:04;15.20;76.80
53645;DHT22;39547;45.554;12.068;2023-04-29T23:45:06;15.20;76.80
53645;DHT22;39547;45.554;12.068;2023-04-29T23:51:08;15.30;77.20
53645;DHT22;39547;45.554;12.068;2023-04-29T23:57:09;15.20;77.20
